sensor_id;sensor_type;location;lat;lon;timestamp;temperature;humidity
68109;SHT30;54893;49.864;19.084;2023-06-24T00:01:35;18.58;88.60
68109;SHT30;54893;49.864;19.084;2023-06-24T00:06:36;18.53;88.60
68109;SHT30;54893;49.864;19.084;2023-06-24T00:11:39;18.59;88.40
68109;SHT30;54893;49.864;19.084;2023-06-24T00:16:40;18.48;88.85
68109;SHT30;54893;49.864;19.084;2023-06-24T00:21:41;18.48;88.71
68109;SHT30;54893;49.864;19.084;2023-06-24T00:26:42;18.51;88.71
68109;SHT30;54893;49.864;19.084;2023-06-24T00:31:42;18.59;88.39
68109;SHT30;54893;49.864;19.084;2023-06-24T00:36:43;18.53;88.46
68109;SHT30;54893;49.864;19.084;2023-06-24T00:41:44;18.53;88.61
68109;SHT30;54893;49.864;19.084;2023-06-24T00:46:44;18.48;88.68
68109;SHT30;54893;49.864;19.084;2023-06-24T00:51:45;18.55;88.16
68109;SHT30;54893;49.864;19.084;2023-06-24T00:56:50;18.52;88.01
68109;SHT30;54893;49.864;19.084;2023-06-24T01:01:50;18.55;87.51
68109;SHT30;54893;49.864;19.084;2023-06-24T01:06:53;18.51;87.59
68109;SHT30;54893;49.864;19.084;2023-06-24T01:11:53;18.48;87.56
68109;SHT30;54893;49.864;19.084;2023-06-24T01:33:07;18.31;87.99
68109;SHT30;54893;49.864;19.084;2023-06-24T01:38:22;18.31;87.98
68109;SHT30;54893;49.864;19.084;2023-06-24T01:43:23;18.19;88.25
68109;SHT30;54893;49.864;19.084;2023-06-24T01:48:29;18.17;88.31
68109;SHT30;54893;49.864;19.084;2023-06-24T01:53:38;18.09;88.33
68109;SHT30;54893;49.864;19.084;2023-06-24T01:58:41;18.05;88.38
68109;SHT30;54893;49.864;19.084;2023-06-24T02:03:42;17.98;88.47
68109;SHT30;54893;49.864;19.084;2023-06-24T02:08:45;17.98;88.57
68109;SHT30;54893;49.864;19.084;2023-06-24T02:13:48;17.97;88.75
68109;SHT30;54893;49.864;19.084;2023-06-24T02:18:49;17.98;88.77
68109;SHT30;54893;49.864;19.084;2023-06-24T02:23:50;18.01;88.86
68109;SHT30;54893;49.864;19.084;2023-06-24T02:28:52;18.00;88.91
68109;SHT30;54893;49.864;19.084;2023-06-24T02:33:53;17.94;89.07
68109;SHT30;54893;49.864;19.084;2023-06-24T02:38:53;17.95;89.06
68109;SHT30;54893;49.864;19.084;2023-06-24T02:43:54;17.94;89.15
68109;SHT30;54893;49.864;19.084;2023-06-24T02:48:56;18.01;88.78
68109;SHT30;54893;49.864;19.084;2023-06-24T02:53:57;17.97;89.08
68109;SHT30;54893;49.864;19.084;2023-06-24T02:58:58;17.95;89.25
68109;SHT30;54893;49.864;19.084;2023-06-24T03:03:58;17.94;89.44
68109;SHT30;54893;49.864;19.084;2023-06-24T03:08:59;17.95;89.46
68109;SHT30;54893;49.864;19.084;2023-06-24T03:13:59;18.01;89.34
68109;SHT30;54893;49.864;19.084;2023-06-24T03:19:00;18.05;89.10
68109;SHT30;54893;49.864;19.084;2023-06-24T03:24:00;18.05;89.11
68109;SHT30;54893;49.864;19.084;2023-06-24T03:29:01;18.11;89.27
68109;SHT30;54893;49.864;19.084;2023-06-24T03:34:01;18.08;89.09
68109;SHT30;54893;49.864;19.084;2023-06-24T03:39:02;18.11;89.19
68109;SHT30;54893;49.864;19.084;2023-06-24T03:44:03;18.04;89.52
68109;SHT30;54893;49.864;19.084;2023-06-24T03:59:32;18.04;89.76
68109;SHT30;54893;49.864;19.084;2023-06-24T04:04:32;18.01;89.83
68109;SHT30;54893;49.864;19.084;2023-06-24T04:09:34;18.15;89.73
68109;SHT30;54893;49.864;19.084;2023-06-24T04:14:34;18.08;90.00
68109;SHT30;54893;49.864;19.084;2023-06-24T04:19:35;18.21;89.72
68109;SHT30;54893;49.864;19.084;2023-06-24T04:24:35;18.12;90.02
68109;SHT30;54893;49.864;19.084;2023-06-24T04:29:36;18.11;90.21
68109;SHT30;54893;49.864;19.084;2023-06-24T04:34:36;18.12;90.33
68109;SHT30;54893;49.864;19.084;2023-06-24T04:39:36;18.12;90.30
68109;SHT30;54893;49.864;19.084;2023-06-24T04:44:37;18.07;90.47
68109;SHT30;54893;49.864;19.084;2023-06-24T04:49:37;18.05;90.61
68109;SHT30;54893;49.864;19.084;2023-06-24T04:54:37;17.97;90.99
68109;SHT30;54893;49.864;19.084;2023-06-24T04:59:38;18.07;91.04
68109;SHT30;54893;49.864;19.084;2023-06-24T05:04:38;18.00;91.45
68109;SHT30;54893;49.864;19.084;2023-06-24T05:09:39;18.00;91.46
68109;SHT30;54893;49.864;19.084;2023-06-24T05:14:39;18.04;91.49
68109;SHT30;54893;49.864;19.084;2023-06-24T05:19:39;18.02;91.69
68109;SHT30;54893;49.864;19.084;2023-06-24T05:24:40;18.02;91.83
68109;SHT30;54893;49.864;19.084;2023-06-24T05:29:41;18.11;91.67
68109;SHT30;54893;49.864;19.084;2023-06-24T05:34:41;18.12;91.64
68109;SHT30;54893;49.864;19.084;2023-06-24T05:39:42;18.00;92.08
68109;SHT30;54893;49.864;19.084;2023-06-24T05:44:42;17.98;92.43
68109;SHT30;54893;49.864;19.084;2023-06-24T05:49:42;17.98;92.67
68109;SHT30;54893;49.864;19.084;2023-06-24T05:54:43;17.88;93.08
68109;SHT30;54893;49.864;19.084;2023-06-24T05:59:43;17.75;93.67
68109;SHT30;54893;49.864;19.084;2023-06-24T06:04:44;17.54;94.33
68109;SHT30;54893;49.864;19.084;2023-06-24T06:09:44;17.40;94.92
68109;SHT30;54893;49.864;19.084;2023-06-24T06:14:45;17.27;95.39
68109;SHT30;54893;49.864;19.084;2023-06-24T06:19:45;17.17;95.86
68109;SHT30;54893;49.864;19.084;2023-06-24T06:24:46;17.15;96.21
68109;SHT30;54893;49.864;19.084;2023-06-24T06:29:47;17.12;96.49
68109;SHT30;54893;49.864;19.084;2023-06-24T06:34:47;17.12;96.37
68109;SHT30;54893;49.864;19.084;2023-06-24T06:39:48;17.07;96.94
68109;SHT30;54893;49.864;19.084;2023-06-24T06:44:48;17.13;96.90
68109;SHT30;54893;49.864;19.084;2023-06-24T06:49:48;17.19;96.77
68109;SHT30;54893;49.864;19.084;2023-06-24T06:54:49;17.26;96.89
68109;SHT30;54893;49.864;19.084;2023-06-24T06:59:50;17.34;96.84
68109;SHT30;54893;49.864;19.084;2023-06-24T07:04:52;17.36;97.03
68109;SHT30;54893;49.864;19.084;2023-06-24T07:09:52;17.34;97.07
68109;SHT30;54893;49.864;19.084;2023-06-24T07:14:53;17.37;97.10
68109;SHT30;54893;49.864;19.084;2023-06-24T07:19:53;17.59;96.98
68109;SHT30;54893;49.864;19.084;2023-06-24T07:24:53;17.66;96.93
68109;SHT30;54893;49.864;19.084;2023-06-24T07:29:56;17.67;96.43
68109;SHT30;54893;49.864;19.084;2023-06-24T07:34:56;17.49;96.58
68109;SHT30;54893;49.864;19.084;2023-06-24T07:39:57;17.40;96.59
68109;SHT30;54893;49.864;19.084;2023-06-24T07:44:57;17.30;96.52
68109;SHT30;54893;49.864;19.084;2023-06-24T07:49:57;17.36;96.38
68109;SHT30;54893;49.864;19.084;2023-06-24T07:54:58;17.22;96.78
68109;SHT30;54893;49.864;19.084;2023-06-24T07:59:59;17.26;95.97
68109;SHT30;54893;49.864;19.084;2023-06-24T08:05:00;17.16;96.24
68109;SHT30;54893;49.864;19.084;2023-06-24T08:10:00;17.23;95.87
68109;SHT30;54893;49.864;19.084;2023-06-24T08:15:02;17.27;95.87
68109;SHT30;54893;49.864;19.084;2023-06-24T08:20:03;17.49;95.28
68109;SHT30;54893;49.864;19.084;2023-06-24T08:25:05;17.49;95.17
68109;SHT30;54893;49.864;19.084;2023-06-24T08:30:07;17.47;95.12
68109;SHT30;54893;49.864;19.084;2023-06-24T08:35:08;17.47;94.50
68109;SHT30;54893;49.864;19.084;2023-06-24T08:40:10;17.36;94.99
68109;SHT30;54893;49.864;19.084;2023-06-24T08:45:10;17.40;94.53
68109;SHT30;54893;49.864;19.084;2023-06-24T08:50:12;17.51;94.01
68109;SHT30;54893;49.864;19.084;2023-06-24T08:55:16;17.55;93.85
68109;SHT30;54893;49.864;19.084;2023-06-24T09:00:17;17.54;94.04
68109;SHT30;54893;49.864;19.084;2023-06-24T09:05:17;17.53;94.05
68109;SHT30;54893;49.864;19.084;2023-06-24T09:10:35;17.50;94.83
68109;SHT30;54893;49.864;19.084;2023-06-24T09:15:37;17.49;94.16
68109;SHT30;54893;49.864;19.084;2023-06-24T09:20:42;17.61;92.85
68109;SHT30;54893;49.864;19.084;2023-06-24T09:25:55;17.41;92.60
68109;SHT30;54893;49.864;19.084;2023-06-24T09:31:09;17.54;92.93
68109;SHT30;54893;49.864;19.084;2023-06-24T09:36:14;17.47;91.93
68109;SHT30;54893;49.864;19.084;2023-06-24T09:41:15;17.51;93.00
68109;SHT30;54893;49.864;19.084;2023-06-24T09:46:15;17.50;92.28
68109;SHT30;54893;49.864;19.084;2023-06-24T09:51:16;17.75;92.06
68109;SHT30;54893;49.864;19.084;2023-06-24T09:56:18;17.75;92.48
68109;SHT30;54893;49.864;19.084;2023-06-24T10:01:19;17.84;91.35
68109;SHT30;54893;49.864;19.084;2023-06-24T10:06:20;18.14;91.65
68109;SHT30;54893;49.864;19.084;2023-06-24T10:11:20;18.05;91.29
68109;SHT30;54893;49.864;19.084;2023-06-24T10:16:22;18.12;91.56
68109;SHT30;54893;49.864;19.084;2023-06-24T10:21:47;18.22;91.01
68109;SHT30;54893;49.864;19.084;2023-06-24T10:26:48;18.38;91.45
68109;SHT30;54893;49.864;19.084;2023-06-24T10:31:50;18.21;90.82
68109;SHT30;54893;49.864;19.084;2023-06-24T10:47:28;18.69;90.72
68109;SHT30;54893;49.864;19.084;2023-06-24T10:52:29;18.81;90.59
68109;SHT30;54893;49.864;19.084;2023-06-24T10:57:29;19.02;90.29
68109;SHT30;54893;49.864;19.084;2023-06-24T11:02:30;19.20;90.70
68109;SHT30;54893;49.864;19.084;2023-06-24T11:07:32;19.39;90.60
68109;SHT30;54893;49.864;19.084;2023-06-24T11:12:36;19.34;90.14
68109;SHT30;54893;49.864;19.084;2023-06-24T11:17:37;19.05;90.43
68109;SHT30;54893;49.864;19.084;2023-06-24T11:22:39;19.10;90.61
68109;SHT30;54893;49.864;19.084;2023-06-24T11:27:40;19.22;90.40
68109;SHT30;54893;49.864;19.084;2023-06-24T11:32:42;19.15;90.56
68109;SHT30;54893;49.864;19.084;2023-06-24T11:37:46;19.17;90.78
68109;SHT30;54893;49.864;19.084;2023-06-24T11:42:48;19.10;90.84
68109;SHT30;54893;49.864;19.084;2023-06-24T11:47:50;18.91;91.25
68109;SHT30;54893;49.864;19.084;2023-06-24T11:52:53;18.66;91.73
68109;SHT30;54893;49.864;19.084;2023-06-24T11:58:01;18.51;92.51
68109;SHT30;54893;49.864;19.084;2023-06-24T12:03:06;18.19;93.00
68109;SHT30;54893;49.864;19.084;2023-06-24T12:08:09;18.17;92.23
68109;SHT30;54893;49.864;19.084;2023-06-24T12:13:10;17.71;93.18
68109;SHT30;54893;49.864;19.084;2023-06-24T12:18:12;17.47;93.38
68109;SHT30;54893;49.864;19.084;2023-06-24T12:23:14;17.50;93.12
68109;SHT30;54893;49.864;19.084;2023-06-24T12:28:14;17.61;92.32
68109;SHT30;54893;49.864;19.084;2023-06-24T12:33:15;17.41;92.58
68109;SHT30;54893;49.864;19.084;2023-06-24T12:38:19;17.46;92.00
68109;SHT30;54893;49.864;19.084;2023-06-24T12:43:19;17.36;92.27
68109;SHT30;54893;49.864;19.084;2023-06-24T12:48:19;17.13;93.26
68109;SHT30;54893;49.864;19.084;2023-06-24T12:53:20;16.86;93.97
68109;SHT30;54893;49.864;19.084;2023-06-24T12:58:23;16.86;93.80
68109;SHT30;54893;49.864;19.084;2023-06-24T13:03:24;16.76;95.01
68109;SHT30;54893;49.864;19.084;2023-06-24T13:08:24;16.73;94.49
68109;SHT30;54893;49.864;19.084;2023-06-24T13:13:25;16.83;94.32
68109;SHT30;54893;49.864;19.084;2023-06-24T13:18:25;16.79;94.54
68109;SHT30;54893;49.864;19.084;2023-06-24T13:23:25;16.63;94.65
68109;SHT30;54893;49.864;19.084;2023-06-24T13:28:26;16.85;94.04
68109;SHT30;54893;49.864;19.084;2023-06-24T13:33:26;16.93;93.79
68109;SHT30;54893;49.864;19.084;2023-06-24T13:38:26;16.85;93.73
68109;SHT30;54893;49.864;19.084;2023-06-24T13:43:27;16.80;93.41
68109;SHT30;54893;49.864;19.084;2023-06-24T13:48:27;16.55;94.27
68109;SHT30;54893;49.864;19.084;2023-06-24T13:53:27;16.53;94.57
68109;SHT30;54893;49.864;19.084;2023-06-24T13:58:28;16.68;93.75
68109;SHT30;54893;49.864;19.084;2023-06-24T14:03:28;16.47;94.41
68109;SHT30;54893;49.864;19.084;2023-06-24T14:08:29;16.41;94.09
68109;SHT30;54893;49.864;19.084;2023-06-24T14:13:30;16.22;94.53
68109;SHT30;54893;49.864;19.084;2023-06-24T14:18:31;16.19;94.69
68109;SHT30;54893;49.864;19.084;2023-06-24T14:23:33;16.19;94.59
68109;SHT30;54893;49.864;19.084;2023-06-24T14:28:33;16.26;94.43
68109;SHT30;54893;49.864;19.084;2023-06-24T14:33:33;16.11;94.77
68109;SHT30;54893;49.864;19.084;2023-06-24T14:38:34;16.09;95.24
68109;SHT30;54893;49.864;19.084;2023-06-24T14:43:34;16.05;95.26
68109;SHT30;54893;49.864;19.084;2023-06-24T14:48:35;16.15;95.12
68109;SHT30;54893;49.864;19.084;2023-06-24T14:53:36;16.21;95.12
68109;SHT30;54893;49.864;19.084;2023-06-24T14:58:36;16.18;94.94
68109;SHT30;54893;49.864;19.084;2023-06-24T15:03:37;16.31;94.98
68109;SHT30;54893;49.864;19.084;2023-06-24T15:08:37;16.39;94.54
68109;SHT30;54893;49.864;19.084;2023-06-24T15:13:38;16.56;95.51
68109;SHT30;54893;49.864;19.084;2023-06-24T15:18:46;16.47;95.78
68109;SHT30;54893;49.864;19.084;2023-06-24T15:23:47;16.36;96.17
68109;SHT30;54893;49.864;19.084;2023-06-24T15:28:47;16.32;96.24
68109;SHT30;54893;49.864;19.084;2023-06-24T15:33:48;16.31;96.27
68109;SHT30;54893;49.864;19.084;2023-06-24T15:38:48;16.22;95.89
68109;SHT30;54893;49.864;19.084;2023-06-24T15:43:49;16.18;96.53
68109;SHT30;54893;49.864;19.084;2023-06-24T15:48:49;16.19;96.42
68109;SHT30;54893;49.864;19.084;2023-06-24T15:53:50;16.31;96.34
68109;SHT30;54893;49.864;19.084;2023-06-24T15:58:50;16.28;96.12
68109;SHT30;54893;49.864;19.084;2023-06-24T16:03:51;16.31;96.19
68109;SHT30;54893;49.864;19.084;2023-06-24T16:08:51;16.36;95.57
68109;SHT30;54893;49.864;19.084;2023-06-24T16:13:51;16.44;95.50
68109;SHT30;54893;49.864;19.084;2023-06-24T16:18:52;16.42;95.74
68109;SHT30;54893;49.864;19.084;2023-06-24T16:23:52;16.45;96.15
68109;SHT30;54893;49.864;19.084;2023-06-24T16:28:53;16.63;95.80
68109;SHT30;54893;49.864;19.084;2023-06-24T16:33:54;16.89;95.26
68109;SHT30;54893;49.864;19.084;2023-06-24T16:38:55;17.23;94.08
68109;SHT30;54893;49.864;19.084;2023-06-24T16:43:55;17.36;93.71
68109;SHT30;54893;49.864;19.084;2023-06-24T16:48:55;17.47;93.55
68109;SHT30;54893;49.864;19.084;2023-06-24T16:53:56;17.29;93.58
68109;SHT30;54893;49.864;19.084;2023-06-24T16:58:56;17.16;93.78
68109;SHT30;54893;49.864;19.084;2023-06-24T17:03:56;17.03;94.05
68109;SHT30;54893;49.864;19.084;2023-06-24T17:08:57;16.89;94.19
68109;SHT30;54893;49.864;19.084;2023-06-24T17:13:58;16.77;94.29
68109;SHT30;54893;49.864;19.084;2023-06-24T17:18:58;16.79;94.72
68109;SHT30;54893;49.864;19.084;2023-06-24T17:23:58;16.77;94.56
68109;SHT30;54893;49.864;19.084;2023-06-24T17:28:59;16.71;94.43
68109;SHT30;54893;49.864;19.084;2023-06-24T17:33:59;16.68;94.99
68109;SHT30;54893;49.864;19.084;2023-06-24T17:39:00;16.68;95.26
68109;SHT30;54893;49.864;19.084;2023-06-24T17:44:00;16.62;95.08
68109;SHT30;54893;49.864;19.084;2023-06-24T17:49:00;16.58;95.63
68109;SHT30;54893;49.864;19.084;2023-06-24T17:54:01;16.61;95.79
68109;SHT30;54893;49.864;19.084;2023-06-24T17:59:01;16.55;95.46
68109;SHT30;54893;49.864;19.084;2023-06-24T18:04:01;16.61;95.48
68109;SHT30;54893;49.864;19.084;2023-06-24T18:09:02;16.61;95.37
68109;SHT30;54893;49.864;19.084;2023-06-24T18:14:03;16.58;95.29
68109;SHT30;54893;49.864;19.084;2023-06-24T18:19:03;16.59;95.46
68109;SHT30;54893;49.864;19.084;2023-06-24T18:24:03;16.92;94.76
68109;SHT30;54893;49.864;19.084;2023-06-24T18:29:05;16.68;94.65
68109;SHT30;54893;49.864;19.084;2023-06-24T18:34:05;16.59;95.04
68109;SHT30;54893;49.864;19.084;2023-06-24T18:39:05;16.61;94.83
68109;SHT30;54893;49.864;19.084;2023-06-24T18:44:06;16.45;95.39
68109;SHT30;54893;49.864;19.084;2023-06-24T18:49:07;16.41;95.58
68109;SHT30;54893;49.864;19.084;2023-06-24T18:54:08;16.36;95.77
68109;SHT30;54893;49.864;19.084;2023-06-24T18:59:08;16.32;95.76
68109;SHT30;54893;49.864;19.084;2023-06-24T19:04:09;16.18;95.88
68109;SHT30;54893;49.864;19.084;2023-06-24T19:09:09;16.12;95.96
68109;SHT30;54893;49.864;19.084;2023-06-24T19:14:10;15.98;95.32
68109;SHT30;54893;49.864;19.084;2023-06-24T19:19:10;15.93;95.80
68109;SHT30;54893;49.864;19.084;2023-06-24T19:24:10;15.90;94.94
68109;SHT30;54893;49.864;19.084;2023-06-24T19:29:11;15.90;95.10
68109;SHT30;54893;49.864;19.084;2023-06-24T19:34:11;15.84;95.22
68109;SHT30;54893;49.864;19.084;2023-06-24T19:39:12;15.80;95.26
68109;SHT30;54893;49.864;19.084;2023-06-24T19:44:12;15.81;95.29
68109;SHT30;54893;49.864;19.084;2023-06-24T19:49:12;15.75;95.51
68109;SHT30;54893;49.864;19.084;2023-06-24T19:54:13;15.73;96.05
68109;SHT30;54893;49.864;19.084;2023-06-24T19:59:13;15.68;96.35
68109;SHT30;54893;49.864;19.084;2023-06-24T20:04:13;15.65;96.21
68109;SHT30;54893;49.864;19.084;2023-06-24T20:09:14;15.65;95.81
68109;SHT30;54893;49.864;19.084;2023-06-24T20:14:14;15.67;97.21
68109;SHT30;54893;49.864;19.084;2023-06-24T20:19:15;15.61;97.43
68109;SHT30;54893;49.864;19.084;2023-06-24T20:24:15;15.57;97.56
68109;SHT30;54893;49.864;19.084;2023-06-24T20:29:15;15.55;98.11
68109;SHT30;54893;49.864;19.084;2023-06-24T20:34:16;15.49;97.96
68109;SHT30;54893;49.864;19.084;2023-06-24T20:39:16;15.44;97.99
68109;SHT30;54893;49.864;19.084;2023-06-24T20:44:17;15.43;98.24
68109;SHT30;54893;49.864;19.084;2023-06-24T20:49:17;15.33;98.20
68109;SHT30;54893;49.864;19.084;2023-06-24T20:54:17;15.26;97.46
68109;SHT30;54893;49.864;19.084;2023-06-24T20:59:18;15.17;97.57
68109;SHT30;54893;49.864;19.084;2023-06-24T21:04:18;15.04;98.14
68109;SHT30;54893;49.864;19.084;2023-06-24T21:09:19;14.93;96.90
68109;SHT30;54893;49.864;19.084;2023-06-24T21:14:19;14.83;96.93
68109;SHT30;54893;49.864;19.084;2023-06-24T21:19:19;14.72;96.79
68109;SHT30;54893;49.864;19.084;2023-06-24T21:24:20;14.65;96.97
68109;SHT30;54893;49.864;19.084;2023-06-24T21:29:21;14.49;96.92
68109;SHT30;54893;49.864;19.084;2023-06-24T21:34:21;14.35;97.38
68109;SHT30;54893;49.864;19.084;2023-06-24T21:39:21;14.33;97.25
68109;SHT30;54893;49.864;19.084;2023-06-24T21:44:22;14.26;97.65
68109;SHT30;54893;49.864;19.084;2023-06-24T21:49:22;14.18;98.35
68109;SHT30;54893;49.864;19.084;2023-06-24T21:54:22;14.12;98.40
68109;SHT30;54893;49.864;19.084;2023-06-24T21:59:23;13.98;98.28
68109;SHT30;54893;49.864;19.084;2023-06-24T22:04:23;13.89;98.86
68109;SHT30;54893;49.864;19.084;2023-06-24T22:09:23;13.87;98.79
68109;SHT30;54893;49.864;19.084;2023-06-24T22:14:24;13.79;98.79
68109;SHT30;54893;49.864;19.084;2023-06-24T22:19:24;13.73;98.94
68109;SHT30;54893;49.864;19.084;2023-06-24T22:24:25;13.58;99.18
68109;SHT30;54893;49.864;19.084;2023-06-24T22:29:25;13.43;99.42
68109;SHT30;54893;49.864;19.084;2023-06-24T22:34:25;13.32;99.50
68109;SHT30;54893;49.864;19.084;2023-06-24T22:39:26;13.24;99.61
68109;SHT30;54893;49.864;19.084;2023-06-24T22:44:26;13.30;99.24
68109;SHT30;54893;49.864;19.084;2023-06-24T22:49:26;13.37;98.74
68109;SHT30;54893;49.864;19.084;2023-06-24T22:54:29;13.36;98.03
68109;SHT30;54893;49.864;19.084;2023-06-24T22:59:30;13.33;98.35
68109;SHT30;54893;49.864;19.084;2023-06-24T23:04:30;13.32;98.24
68109;SHT30;54893;49.864;19.084;2023-06-24T23:09:31;13.27;98.33
68109;SHT30;54893;49.864;19.084;2023-06-24T23:14:32;13.26;99.03
68109;SHT30;54893;49.864;19.084;2023-06-24T23:19:33;13.22;99.37
68109;SHT30;54893;49.864;19.084;2023-06-24T23:24:34;13.17;99.87
68109;SHT30;54893;49.864;19.084;2023-06-24T23:29:36;13.14;99.24
68109;SHT30;54893;49.864;19.084;2023-06-24T23:34:37;13.09;99.54
68109;SHT30;54893;49.864;19.084;2023-06-24T23:39:38;13.04;99.90
68109;SHT30;54893;49.864;19.084;2023-06-24T23:44:39;13.02;99.86
68109;SHT30;54893;49.864;19.084;2023-06-24T23:49:39;12.86;99.99
68109;SHT30;54893;49.864;19.084;2023-06-24T23:54:39;12.80;99.60
68109;SHT30;54893;49.864;19.084;2023-06-24T23:59:40;12.78;99.47
